sensor_id;sensor_type;location;lat;lon;timestamp;pressure;altitude;pressure_sealevel;temperature;humidity
64717;BME280;51146;50.274;19.000;2022-07-29T00:00:04;98720.88;;;17.72;43.82
64717;BME280;51146;50.274;19.000;2022-07-29T00:02:31;98718.69;;;17.76;43.96
64717;BME280;51146;50.274;19.000;2022-07-29T00:04:58;98720.06;;;17.80;43.71
64717;BME280;51146;50.274;19.000;2022-07-29T00:07:26;98713.91;;;17.78;43.42
64717;BME280;51146;50.274;19.000;2022-07-29T00:09:53;98715.44;;;17.80;43.39
64717;BME280;51146;50.274;19.000;2022-07-29T00:12:21;98712.56;;;17.82;43.44
64717;BME280;51146;50.274;19.000;2022-07-29T00:14:53;98707.63;;;17.85;43.15
64717;BME280;51146;50.274;19.000;2022-07-29T00:17:21;98699.59;;;17.84;42.98
64717;BME280;51146;50.274;19.000;2022-07-29T00:19:48;98714.28;;;17.83;43.09
64717;BME280;51146;50.274;19.000;2022-07-29T00:22:15;98696.16;;;17.82;43.19
64717;BME280;51146;50.274;19.000;2022-07-29T00:24:41;98696.16;;;17.82;42.94
64717;BME280;51146;50.274;19.000;2022-07-29T00:27:08;98689.69;;;17.83;43.01
64717;BME280;51146;50.274;19.000;2022-07-29T00:29:35;98695.84;;;17.85;42.50
64717;BME280;51146;50.274;19.000;2022-07-29T00:32:02;98689.53;;;17.84;42.57
64717;BME280;51146;50.274;19.000;2022-07-29T00:34:29;98696.69;;;17.85;42.38
64717;BME280;51146;50.274;19.000;2022-07-29T00:37:15;98697.38;;;17.87;41.95
64717;BME280;51146;50.274;19.000;2022-07-29T00:39:42;98693.66;;;17.88;42.50
64717;BME280;51146;50.274;19.000;2022-07-29T00:42:09;98689.56;;;17.92;42.32
64717;BME280;51146;50.274;19.000;2022-07-29T00:44:40;98684.63;;;17.96;41.79
64717;BME280;51146;50.274;19.000;2022-07-29T00:47:07;98694.38;;;17.99;41.62
64717;BME280;51146;50.274;19.000;2022-07-29T00:49:35;98691.47;;;18.00;41.46
64717;BME280;51146;50.274;19.000;2022-07-29T00:52:04;98690.28;;;18.03;41.45
64717;BME280;51146;50.274;19.000;2022-07-29T00:54:32;98689.13;;;18.05;41.71
64717;BME280;51146;50.274;19.000;2022-07-29T00:56:59;98683.66;;;18.05;41.05
64717;BME280;51146;50.274;19.000;2022-07-29T00:59:27;98681.75;;;18.06;41.04
64717;BME280;51146;50.274;19.000;2022-07-29T01:02:02;98677.16;;;18.06;41.02
64717;BME280;51146;50.274;19.000;2022-07-29T01:04:30;98675.25;;;18.07;41.14
64717;BME280;51146;50.274;19.000;2022-07-29T01:06:58;98676.13;;;18.07;40.93
64717;BME280;51146;50.274;19.000;2022-07-29T01:09:28;98673.22;;;18.09;40.66
64717;BME280;51146;50.274;19.000;2022-07-29T01:12:17;98676.31;;;18.06;40.60
64717;BME280;51146;50.274;19.000;2022-07-29T01:14:46;98668.09;;;18.06;40.96
64717;BME280;51146;50.274;19.000;2022-07-29T01:17:24;98667.94;;;18.07;40.72
64717;BME280;51146;50.274;19.000;2022-07-29T01:30:36;98666.25;;;17.72;39.76
64717;BME280;51146;50.274;19.000;2022-07-29T01:33:11;98667.41;;;17.61;40.14
64717;BME280;51146;50.274;19.000;2022-07-29T01:36:07;98671.41;;;17.49;40.36
64717;BME280;51146;50.274;19.000;2022-07-29T01:38:38;98665.19;;;17.39;40.01
64717;BME280;51146;50.274;19.000;2022-07-29T01:41:09;98660.53;;;17.31;40.37
64717;BME280;51146;50.274;19.000;2022-07-29T01:43:57;98662.19;;;17.24;40.61
64717;BME280;51146;50.274;19.000;2022-07-29T01:46:34;98661.97;;;17.17;40.82
64717;BME280;51146;50.274;19.000;2022-07-29T01:49:15;98659.88;;;17.11;40.47
64717;BME280;51146;50.274;19.000;2022-07-29T01:51:50;98653.03;;;17.07;40.31
64717;BME280;51146;50.274;19.000;2022-07-29T01:57:04;98654.34;;;17.03;40.83
64717;BME280;51146;50.274;19.000;2022-07-29T01:59:33;98649.06;;;17.01;40.50
64717;BME280;51146;50.274;19.000;2022-07-29T02:02:02;98651.09;;;16.99;40.57
64717;BME280;51146;50.274;19.000;2022-07-29T02:04:29;98650.53;;;16.95;40.51
64717;BME280;51146;50.274;19.000;2022-07-29T02:07:01;98653.44;;;16.94;40.55
64717;BME280;51146;50.274;19.000;2022-07-29T02:09:30;98642.84;;;16.91;40.33
64717;BME280;51146;50.274;19.000;2022-07-29T02:12:00;98644.03;;;16.88;40.29
64717;BME280;51146;50.274;19.000;2022-07-29T02:14:33;98644.34;;;16.85;40.62
64717;BME280;51146;50.274;19.000;2022-07-29T02:17:02;98647.56;;;16.81;40.69
64717;BME280;51146;50.274;19.000;2022-07-29T02:19:32;98650.44;;;16.79;40.27
64717;BME280;51146;50.274;19.000;2022-07-29T02:22:00;98644.28;;;16.77;40.34
64717;BME280;51146;50.274;19.000;2022-07-29T02:24:28;98638.28;;;16.73;40.40
64717;BME280;51146;50.274;19.000;2022-07-29T02:26:57;98640.47;;;16.70;40.81
64717;BME280;51146;50.274;19.000;2022-07-29T02:29:26;98635.16;;;16.68;40.85
64717;BME280;51146;50.274;19.000;2022-07-29T02:31:55;98639.75;;;16.68;40.48
64717;BME280;51146;50.274;19.000;2022-07-29T02:34:24;98636.19;;;16.67;40.43
64717;BME280;51146;50.274;19.000;2022-07-29T02:36:52;98637.19;;;16.66;40.54
64717;BME280;51146;50.274;19.000;2022-07-29T02:39:21;98646.56;;;16.64;40.96
64717;BME280;51146;50.274;19.000;2022-07-29T02:41:50;98640.22;;;16.63;40.92
64717;BME280;51146;50.274;19.000;2022-07-29T02:44:18;98634.94;;;16.62;40.92
64717;BME280;51146;50.274;19.000;2022-07-29T02:46:53;98632.50;;;16.59;40.60
64717;BME280;51146;50.274;19.000;2022-07-29T02:49:37;98634.53;;;16.56;41.23
64717;BME280;51146;50.274;19.000;2022-07-29T02:52:35;98632.78;;;16.55;41.01
64717;BME280;51146;50.274;19.000;2022-07-29T02:55:15;98627.34;;;16.55;41.08
64717;BME280;51146;50.274;19.000;2022-07-29T03:00:36;98623.75;;;16.55;40.95
64717;BME280;51146;50.274;19.000;2022-07-29T03:03:07;98631.94;;;16.55;41.13
64717;BME280;51146;50.274;19.000;2022-07-29T03:05:39;98623.75;;;16.55;40.69
64717;BME280;51146;50.274;19.000;2022-07-29T03:08:11;98630.94;;;16.56;40.96
64717;BME280;51146;50.274;19.000;2022-07-29T03:10:43;98632.50;;;16.59;41.15
64717;BME280;51146;50.274;19.000;2022-07-29T03:13:12;98635.78;;;16.62;41.08
64717;BME280;51146;50.274;19.000;2022-07-29T03:15:42;98625.44;;;16.66;41.08
64717;BME280;51146;50.274;19.000;2022-07-29T03:18:10;98624.09;;;16.70;40.76
64717;BME280;51146;50.274;19.000;2022-07-29T03:20:38;98625.50;;;16.74;40.95
64717;BME280;51146;50.274;19.000;2022-07-29T03:23:06;98628.06;;;16.75;40.73
64717;BME280;51146;50.274;19.000;2022-07-29T03:25:33;98622.47;;;16.77;40.63
64717;BME280;51146;50.274;19.000;2022-07-29T03:28:00;98623.16;;;16.79;41.07
64717;BME280;51146;50.274;19.000;2022-07-29T03:30:27;98620.44;;;16.79;41.08
64717;BME280;51146;50.274;19.000;2022-07-29T03:32:57;98626.88;;;16.78;40.87
64717;BME280;51146;50.274;19.000;2022-07-29T03:35:24;98625.88;;;16.79;40.85
64717;BME280;51146;50.274;19.000;2022-07-29T03:37:51;98622.13;;;16.80;41.04
64717;BME280;51146;50.274;19.000;2022-07-29T03:40:49;98624.84;;;16.80;40.90
64717;BME280;51146;50.274;19.000;2022-07-29T03:43:18;98624.84;;;16.80;40.91
64717;BME280;51146;50.274;19.000;2022-07-29T03:45:47;98625.00;;;16.79;41.33
64717;BME280;51146;50.274;19.000;2022-07-29T03:48:20;98624.84;;;16.80;41.30
64717;BME280;51146;50.274;19.000;2022-07-29T03:50:49;98620.28;;;16.81;41.51
64717;BME280;51146;50.274;19.000;2022-07-29T03:53:17;98622.81;;;16.82;41.45
64717;BME280;51146;50.274;19.000;2022-07-29T03:55:47;98611.75;;;16.84;41.33
64717;BME280;51146;50.274;19.000;2022-07-29T03:58:16;98614.19;;;16.87;41.93
64717;BME280;51146;50.274;19.000;2022-07-29T04:00:44;98611.31;;;16.88;41.83
64717;BME280;51146;50.274;19.000;2022-07-29T04:03:11;98614.03;;;16.88;41.76
64717;BME280;51146;50.274;19.000;2022-07-29T04:05:41;98622.03;;;16.90;41.38
64717;BME280;51146;50.274;19.000;2022-07-29T04:08:08;98619.16;;;16.91;41.73
64717;BME280;51146;50.274;19.000;2022-07-29T04:10:35;98617.25;;;16.92;41.48
64717;BME280;51146;50.274;19.000;2022-07-29T04:13:01;98631.59;;;16.94;41.96
64717;BME280;51146;50.274;19.000;2022-07-29T04:15:28;98628.41;;;16.99;41.92
64717;BME280;51146;50.274;19.000;2022-07-29T04:17:57;98626.53;;;16.99;42.04
64717;BME280;51146;50.274;19.000;2022-07-29T04:20:23;98627.06;;;17.03;41.71
64717;BME280;51146;50.274;19.000;2022-07-29T04:22:50;98628.47;;;17.07;41.56
64717;BME280;51146;50.274;19.000;2022-07-29T04:25:17;98627.13;;;17.11;41.70
64717;BME280;51146;50.274;19.000;2022-07-29T04:27:43;98631.97;;;17.17;41.60
64717;BME280;51146;50.274;19.000;2022-07-29T04:30:29;98627.56;;;17.24;41.22
64717;BME280;51146;50.274;19.000;2022-07-29T04:32:57;98628.78;;;17.30;41.58
64717;BME280;51146;50.274;19.000;2022-07-29T04:35:23;98625.41;;;17.36;41.61
64717;BME280;51146;50.274;19.000;2022-07-29T04:37:50;98626.47;;;17.43;41.50
64717;BME280;51146;50.274;19.000;2022-07-29T04:40:18;98618.84;;;17.47;41.09
64717;BME280;51146;50.274;19.000;2022-07-29T04:42:45;98623.81;;;17.51;41.37
64717;BME280;51146;50.274;19.000;2022-07-29T04:45:13;98617.19;;;17.54;41.01
64717;BME280;51146;50.274;19.000;2022-07-29T04:47:41;98620.59;;;17.56;41.13
64717;BME280;51146;50.274;19.000;2022-07-29T04:50:09;98613.09;;;17.58;41.18
64717;BME280;51146;50.274;19.000;2022-07-29T04:52:36;98614.78;;;17.59;40.96
64717;BME280;51146;50.274;19.000;2022-07-29T04:55:06;98610.06;;;17.61;41.08
64717;BME280;51146;50.274;19.000;2022-07-29T04:57:33;98617.53;;;17.59;41.58
64717;BME280;51146;50.274;19.000;2022-07-29T05:00:00;98603.72;;;17.61;41.13
64717;BME280;51146;50.274;19.000;2022-07-29T05:02:27;98611.91;;;17.61;41.46
64717;BME280;51146;50.274;19.000;2022-07-29T05:04:54;98606.28;;;17.62;41.36
64717;BME280;51146;50.274;19.000;2022-07-29T05:07:20;98612.44;;;17.64;41.19
64717;BME280;51146;50.274;19.000;2022-07-29T05:09:47;98608.50;;;17.67;41.22
64717;BME280;51146;50.274;19.000;2022-07-29T05:12:14;98606.66;;;17.67;41.72
64717;BME280;51146;50.274;19.000;2022-07-29T05:14:41;98613.34;;;17.73;41.53
64717;BME280;51146;50.274;19.000;2022-07-29T05:17:08;98615.41;;;17.79;41.56
64717;BME280;51146;50.274;19.000;2022-07-29T05:19:34;98621.94;;;17.86;41.45
64717;BME280;51146;50.274;19.000;2022-07-29T05:22:05;98621.09;;;17.94;41.47
64717;BME280;51146;50.274;19.000;2022-07-29T05:24:32;98621.28;;;18.01;41.75
64717;BME280;51146;50.274;19.000;2022-07-29T05:26:58;98613.28;;;18.07;41.60
64717;BME280;51146;50.274;19.000;2022-07-29T05:29:25;98616.88;;;18.16;41.27
64717;BME280;51146;50.274;19.000;2022-07-29T05:32:11;98606.97;;;18.23;41.58
64717;BME280;51146;50.274;19.000;2022-07-29T05:34:38;98611.13;;;18.27;41.65
64717;BME280;51146;50.274;19.000;2022-07-29T05:37:19;98609.59;;;18.33;41.34
64717;BME280;51146;50.274;19.000;2022-07-29T05:39:46;98618.84;;;18.40;41.53
64717;BME280;51146;50.274;19.000;2022-07-29T05:42:22;98618.16;;;18.46;41.54
64717;BME280;51146;50.274;19.000;2022-07-29T05:44:48;98613.38;;;18.48;41.52
64717;BME280;51146;50.274;19.000;2022-07-29T05:47:15;98617.47;;;18.52;41.68
64717;BME280;51146;50.274;19.000;2022-07-29T05:49:43;98606.72;;;18.59;41.88
64717;BME280;51146;50.274;19.000;2022-07-29T05:52:12;98610.28;;;18.68;41.81
64717;BME280;51146;50.274;19.000;2022-07-29T05:54:39;98610.81;;;18.71;41.27
64717;BME280;51146;50.274;19.000;2022-07-29T05:57:06;98610.47;;;18.75;41.59
64717;BME280;51146;50.274;19.000;2022-07-29T05:59:36;98599.84;;;18.80;41.90
64717;BME280;51146;50.274;19.000;2022-07-29T06:02:04;98607.88;;;18.89;41.85
64717;BME280;51146;50.274;19.000;2022-07-29T06:04:33;98597.28;;;19.03;41.75
64717;BME280;51146;50.274;19.000;2022-07-29T06:07:01;98596.78;;;19.16;42.28
64717;BME280;51146;50.274;19.000;2022-07-29T06:09:28;98589.03;;;19.27;42.05
64717;BME280;51146;50.274;19.000;2022-07-29T06:11:55;98594.31;;;19.37;41.92
64717;BME280;51146;50.274;19.000;2022-07-29T06:14:22;98597.88;;;19.46;41.57
64717;BME280;51146;50.274;19.000;2022-07-29T06:16:48;98597.53;;;19.49;41.65
64717;BME280;51146;50.274;19.000;2022-07-29T06:19:15;98599.59;;;19.47;41.29
64717;BME280;51146;50.274;19.000;2022-07-29T06:21:43;98596.50;;;19.50;41.64
64717;BME280;51146;50.274;19.000;2022-07-29T06:24:14;98605.72;;;19.57;41.30
64717;BME280;51146;50.274;19.000;2022-07-29T06:26:42;98610.50;;;19.63;41.24
64717;BME280;51146;50.274;19.000;2022-07-29T06:29:13;98610.28;;;19.73;41.40
64717;BME280;51146;50.274;19.000;2022-07-29T06:31:40;98615.06;;;19.79;41.29
64717;BME280;51146;50.274;19.000;2022-07-29T06:34:07;98619.31;;;19.90;40.83
64717;BME280;51146;50.274;19.000;2022-07-29T06:36:35;98603.31;;;20.02;41.49
64717;BME280;51146;50.274;19.000;2022-07-29T06:39:06;98616.97;;;20.10;40.89
64717;BME280;51146;50.274;19.000;2022-07-29T06:41:33;98611.94;;;20.22;40.69
64717;BME280;51146;50.274;19.000;2022-07-29T06:44:00;98607.44;;;20.29;40.54
64717;BME280;51146;50.274;19.000;2022-07-29T06:46:26;98619.22;;;20.38;40.42
64717;BME280;51146;50.274;19.000;2022-07-29T06:48:54;98615.38;;;20.47;40.37
64717;BME280;51146;50.274;19.000;2022-07-29T06:51:21;98617.44;;;20.53;40.03
64717;BME280;51146;50.274;19.000;2022-07-29T06:53:51;98612.22;;;20.58;40.31
64717;BME280;51146;50.274;19.000;2022-07-29T06:56:32;98611.44;;;20.73;40.27
64717;BME280;51146;50.274;19.000;2022-07-29T06:59:06;98600.59;;;20.94;39.67
64717;BME280;51146;50.274;19.000;2022-07-29T07:01:34;98601.78;;;21.15;39.65
64717;BME280;51146;50.274;19.000;2022-07-29T07:04:01;98598.22;;;21.29;39.58
64717;BME280;51146;50.274;19.000;2022-07-29T07:06:28;98602.03;;;21.43;39.68
64717;BME280;51146;50.274;19.000;2022-07-29T07:08:56;98595.00;;;21.55;39.02
64717;BME280;51146;50.274;19.000;2022-07-29T07:11:24;98591.59;;;21.68;39.18
64717;BME280;51146;50.274;19.000;2022-07-29T07:13:50;98600.41;;;21.78;38.21
64717;BME280;51146;50.274;19.000;2022-07-29T07:16:17;98598.91;;;21.76;38.77
64717;BME280;51146;50.274;19.000;2022-07-29T07:18:44;98611.22;;;21.80;38.78
64717;BME280;51146;50.274;19.000;2022-07-29T07:21:12;98593.47;;;21.82;38.56
64717;BME280;51146;50.274;19.000;2022-07-29T07:23:44;98598.97;;;21.82;38.43
64717;BME280;51146;50.274;19.000;2022-07-29T07:26:11;98604.88;;;21.79;38.39
64717;BME280;51146;50.274;19.000;2022-07-29T07:28:38;98597.66;;;21.78;38.81
64717;BME280;51146;50.274;19.000;2022-07-29T07:31:05;98609.78;;;21.84;39.02
64717;BME280;51146;50.274;19.000;2022-07-29T07:33:32;98600.94;;;21.89;38.79
64717;BME280;51146;50.274;19.000;2022-07-29T07:35:59;98601.25;;;21.94;39.01
64717;BME280;51146;50.274;19.000;2022-07-29T07:38:26;98602.38;;;21.99;39.18
64717;BME280;51146;50.274;19.000;2022-07-29T07:40:53;98599.50;;;22.08;38.16
64717;BME280;51146;50.274;19.000;2022-07-29T07:43:19;98599.66;;;22.21;38.76
64717;BME280;51146;50.274;19.000;2022-07-29T07:45:46;98599.16;;;22.32;38.41
64717;BME280;51146;50.274;19.000;2022-07-29T07:48:13;98597.16;;;22.41;38.27
64717;BME280;51146;50.274;19.000;2022-07-29T07:50:39;98607.38;;;22.47;38.68
64717;BME280;51146;50.274;19.000;2022-07-29T07:53:06;98597.75;;;22.58;38.34
64717;BME280;51146;50.274;19.000;2022-07-29T07:55:33;98590.31;;;22.73;38.39
64717;BME280;51146;50.274;19.000;2022-07-29T07:58:23;98592.38;;;22.93;37.55
64717;BME280;51146;50.274;19.000;2022-07-29T08:00:50;98590.38;;;23.08;37.78
64717;BME280;51146;50.274;19.000;2022-07-29T08:03:17;98591.13;;;23.24;37.88
64717;BME280;51146;50.274;19.000;2022-07-29T08:05:44;98597.34;;;23.32;36.99
64717;BME280;51146;50.274;19.000;2022-07-29T08:08:10;98594.19;;;23.35;36.97
64717;BME280;51146;50.274;19.000;2022-07-29T08:10:37;98603.56;;;23.41;37.18
64717;BME280;51146;50.274;19.000;2022-07-29T08:13:21;98605.91;;;23.44;37.22
64717;BME280;51146;50.274;19.000;2022-07-29T08:15:48;98598.28;;;23.46;36.93
64717;BME280;51146;50.274;19.000;2022-07-29T08:18:24;98593.47;;;23.55;36.87
64717;BME280;51146;50.274;19.000;2022-07-29T08:20:51;98594.38;;;23.69;36.81
64717;BME280;51146;50.274;19.000;2022-07-29T08:23:18;98584.44;;;23.74;36.54
64717;BME280;51146;50.274;19.000;2022-07-29T08:25:50;98584.88;;;23.78;36.42
64717;BME280;51146;50.274;19.000;2022-07-29T08:28:20;98595.72;;;23.80;36.73
64717;BME280;51146;50.274;19.000;2022-07-29T08:30:51;98589.56;;;23.84;36.49
64717;BME280;51146;50.274;19.000;2022-07-29T08:33:18;98583.66;;;23.87;36.40
64717;BME280;51146;50.274;19.000;2022-07-29T08:35:44;98583.94;;;23.92;36.39
64717;BME280;51146;50.274;19.000;2022-07-29T08:38:12;98582.03;;;24.00;36.00
64717;BME280;51146;50.274;19.000;2022-07-29T08:40:39;98579.91;;;24.02;36.36
64717;BME280;51146;50.274;19.000;2022-07-29T08:43:07;98576.78;;;24.11;36.02
64717;BME280;51146;50.274;19.000;2022-07-29T08:45:54;98589.53;;;24.26;35.71
64717;BME280;51146;50.274;19.000;2022-07-29T08:48:22;98589.81;;;24.44;35.61
64717;BME280;51146;50.274;19.000;2022-07-29T08:50:55;98593.91;;;24.68;35.35
64717;BME280;51146;50.274;19.000;2022-07-29T08:53:25;98597.09;;;24.99;35.18
64717;BME280;51146;50.274;19.000;2022-07-29T08:55:53;98597.09;;;25.32;34.75
64717;BME280;51146;50.274;19.000;2022-07-29T08:58:21;98587.06;;;25.58;34.23
64717;BME280;51146;50.274;19.000;2022-07-29T09:00:52;98600.22;;;25.82;34.02
64717;BME280;51146;50.274;19.000;2022-07-29T09:03:23;98585.22;;;26.03;33.36
64717;BME280;51146;50.274;19.000;2022-07-29T09:05:51;98586.00;;;26.17;32.90
64717;BME280;51146;50.274;19.000;2022-07-29T09:08:19;98579.31;;;26.38;32.61
64717;BME280;51146;50.274;19.000;2022-07-29T09:10:46;98589.03;;;26.79;32.25
64717;BME280;51146;50.274;19.000;2022-07-29T09:13:13;98590.53;;;27.32;31.24
64717;BME280;51146;50.274;19.000;2022-07-29T09:15:40;98588.66;;;27.88;30.28
64717;BME280;51146;50.274;19.000;2022-07-29T09:18:07;98579.06;;;28.39;29.90
64717;BME280;51146;50.274;19.000;2022-07-29T09:20:52;98571.03;;;29.15;29.21
64717;BME280;51146;50.274;19.000;2022-07-29T09:23:37;98573.22;;;29.72;28.44
64717;BME280;51146;50.274;19.000;2022-07-29T09:26:06;98581.78;;;29.83;27.81
64717;BME280;51146;50.274;19.000;2022-07-29T09:28:32;98575.53;;;29.75;27.50
64717;BME280;51146;50.274;19.000;2022-07-29T09:30:59;98574.63;;;29.98;27.81
64717;BME280;51146;50.274;19.000;2022-07-29T09:33:33;98571.28;;;30.54;27.31
64717;BME280;51146;50.274;19.000;2022-07-29T09:36:08;98570.56;;;31.26;26.88
64717;BME280;51146;50.274;19.000;2022-07-29T09:38:35;98569.84;;;32.14;25.89
64717;BME280;51146;50.274;19.000;2022-07-29T09:41:04;98556.47;;;32.98;24.39
64717;BME280;51146;50.274;19.000;2022-07-29T09:43:33;98555.59;;;33.72;23.60
64717;BME280;51146;50.274;19.000;2022-07-29T09:46:10;98557.25;;;34.31;22.59
64717;BME280;51146;50.274;19.000;2022-07-29T09:48:38;98557.66;;;34.81;22.04
64717;BME280;51146;50.274;19.000;2022-07-29T09:51:04;98563.56;;;35.20;21.65
64717;BME280;51146;50.274;19.000;2022-07-29T09:53:37;98550.63;;;35.50;21.12
64717;BME280;51146;50.274;19.000;2022-07-29T09:56:04;98553.72;;;35.23;20.58
64717;BME280;51146;50.274;19.000;2022-07-29T09:58:32;98559.31;;;34.61;20.91
64717;BME280;51146;50.274;19.000;2022-07-29T10:01:02;98555.59;;;34.40;21.22
64717;BME280;51146;50.274;19.000;2022-07-29T10:03:30;98552.72;;;34.10;21.49
64717;BME280;51146;50.274;19.000;2022-07-29T10:06:10;98546.81;;;33.58;21.56
64717;BME280;51146;50.274;19.000;2022-07-29T10:08:41;98547.72;;;33.21;22.38
64717;BME280;51146;50.274;19.000;2022-07-29T10:11:13;98540.41;;;32.83;22.41
64717;BME280;51146;50.274;19.000;2022-07-29T10:13:44;98545.06;;;32.72;23.17
64717;BME280;51146;50.274;19.000;2022-07-29T10:16:11;98545.38;;;33.08;23.04
64717;BME280;51146;50.274;19.000;2022-07-29T10:18:40;98544.78;;;33.43;22.90
64717;BME280;51146;50.274;19.000;2022-07-29T10:21:07;98540.00;;;33.39;22.40
64717;BME280;51146;50.274;19.000;2022-07-29T10:23:34;98539.09;;;33.28;22.52
64717;BME280;51146;50.274;19.000;2022-07-29T10:26:12;98535.75;;;33.31;22.87
64717;BME280;51146;50.274;19.000;2022-07-29T10:28:39;98534.66;;;33.32;22.33
64717;BME280;51146;50.274;19.000;2022-07-29T10:31:11;98532.22;;;33.08;22.90
64717;BME280;51146;50.274;19.000;2022-07-29T10:34:21;98528.78;;;32.96;22.46
64717;BME280;51146;50.274;19.000;2022-07-29T10:39:58;98522.25;;;34.39;22.09
64717;BME280;51146;50.274;19.000;2022-07-29T10:42:52;98531.50;;;35.57;20.71
64717;BME280;51146;50.274;19.000;2022-07-29T10:45:21;98516.03;;;36.25;20.24
64717;BME280;51146;50.274;19.000;2022-07-29T10:47:47;98521.22;;;36.92;19.15
64717;BME280;51146;50.274;19.000;2022-07-29T10:50:15;98512.91;;;37.40;18.91
64717;BME280;51146;50.274;19.000;2022-07-29T10:52:55;98520.63;;;38.02;18.62
64717;BME280;51146;50.274;19.000;2022-07-29T10:55:38;98516.50;;;38.37;17.43
64717;BME280;51146;50.274;19.000;2022-07-29T10:58:21;98519.25;;;38.23;17.41
64717;BME280;51146;50.274;19.000;2022-07-29T11:00:51;98523.97;;;38.28;17.24
64717;BME280;51146;50.274;19.000;2022-07-29T11:03:47;98516.19;;;38.20;17.47
64717;BME280;51146;50.274;19.000;2022-07-29T11:06:19;98524.03;;;38.04;17.73
64717;BME280;51146;50.274;19.000;2022-07-29T11:09:14;98522.06;;;37.99;17.66
64717;BME280;51146;50.274;19.000;2022-07-29T11:11:42;98524.13;;;37.93;17.85
64717;BME280;51146;50.274;19.000;2022-07-29T11:17:18;98517.53;;;37.31;17.25
64717;BME280;51146;50.274;19.000;2022-07-29T11:19:46;98516.84;;;36.31;17.97
64717;BME280;51146;50.274;19.000;2022-07-29T11:22:34;98521.66;;;35.60;19.50
64717;BME280;51146;50.274;19.000;2022-07-29T11:25:15;98527.91;;;35.16;19.68
64717;BME280;51146;50.274;19.000;2022-07-29T11:27:44;98515.56;;;34.66;20.37
64717;BME280;51146;50.274;19.000;2022-07-29T11:30:13;98521.41;;;34.28;20.33
64717;BME280;51146;50.274;19.000;2022-07-29T11:32:42;98516.53;;;34.03;20.23
64717;BME280;51146;50.274;19.000;2022-07-29T11:35:19;98520.94;;;33.83;22.13
64717;BME280;51146;50.274;19.000;2022-07-29T11:38:26;98517.78;;;33.70;22.18
64717;BME280;51146;50.274;19.000;2022-07-29T11:41:22;98512.06;;;33.44;21.62
64717;BME280;51146;50.274;19.000;2022-07-29T11:46:50;98508.50;;;33.16;22.28
64717;BME280;51146;50.274;19.000;2022-07-29T11:49:26;98513.38;;;33.31;22.37
64717;BME280;51146;50.274;19.000;2022-07-29T11:51:59;98515.28;;;33.73;22.45
64717;BME280;51146;50.274;19.000;2022-07-29T11:54:33;98512.97;;;34.23;22.31
64717;BME280;51146;50.274;19.000;2022-07-29T11:57:20;98512.50;;;34.57;21.43
64717;BME280;51146;50.274;19.000;2022-07-29T11:59:47;98503.81;;;34.69;20.38
64717;BME280;51146;50.274;19.000;2022-07-29T12:02:16;98503.22;;;34.61;20.72
64717;BME280;51146;50.274;19.000;2022-07-29T12:05:03;98503.53;;;34.65;21.19
64717;BME280;51146;50.274;19.000;2022-07-29T12:07:37;98499.88;;;34.65;20.71
64717;BME280;51146;50.274;19.000;2022-07-29T12:10:10;98495.09;;;34.60;20.56
64717;BME280;51146;50.274;19.000;2022-07-29T12:12:51;98501.78;;;34.49;21.57
64717;BME280;51146;50.274;19.000;2022-07-29T12:15:18;98513.56;;;34.30;20.60
64717;BME280;51146;50.274;19.000;2022-07-29T12:17:48;98504.13;;;33.83;21.58
64717;BME280;51146;50.274;19.000;2022-07-29T12:20:23;98509.81;;;33.51;21.87
64717;BME280;51146;50.274;19.000;2022-07-29T12:22:50;98508.34;;;33.33;22.22
64717;BME280;51146;50.274;19.000;2022-07-29T12:25:21;98515.53;;;33.19;22.94
64717;BME280;51146;50.274;19.000;2022-07-29T12:28:10;98508.94;;;33.03;22.62
64717;BME280;51146;50.274;19.000;2022-07-29T12:30:49;98507.78;;;32.94;23.11
64717;BME280;51146;50.274;19.000;2022-07-29T12:33:25;98510.75;;;32.82;23.38
64717;BME280;51146;50.274;19.000;2022-07-29T12:36:02;98510.75;;;32.82;23.20
64717;BME280;51146;50.274;19.000;2022-07-29T12:38:40;98501.56;;;32.86;22.82
64717;BME280;51146;50.274;19.000;2022-07-29T12:41:08;98509.97;;;32.92;22.78
64717;BME280;51146;50.274;19.000;2022-07-29T12:43:34;98503.56;;;32.91;22.91
64717;BME280;51146;50.274;19.000;2022-07-29T12:46:12;98510.47;;;32.78;22.93
64717;BME280;51146;50.274;19.000;2022-07-29T12:48:41;98507.22;;;32.64;24.00
64717;BME280;51146;50.274;19.000;2022-07-29T12:51:10;98502.03;;;32.46;23.94
64717;BME280;51146;50.274;19.000;2022-07-29T12:53:38;98498.28;;;32.35;23.90
64717;BME280;51146;50.274;19.000;2022-07-29T12:56:06;98496.88;;;32.33;23.66
64717;BME280;51146;50.274;19.000;2022-07-29T12:58:53;98494.41;;;32.36;24.22
64717;BME280;51146;50.274;19.000;2022-07-29T13:01:20;98487.78;;;32.47;23.51
64717;BME280;51146;50.274;19.000;2022-07-29T13:09:06;98482.34;;;33.38;22.84
64717;BME280;51146;50.274;19.000;2022-07-29T13:11:42;98476.31;;;33.61;22.85
64717;BME280;51146;50.274;19.000;2022-07-29T13:14:35;98475.63;;;34.02;22.38
64717;BME280;51146;50.274;19.000;2022-07-29T13:19:35;98475.09;;;35.33;21.35
64717;BME280;51146;50.274;19.000;2022-07-29T13:22:02;98463.78;;;36.24;20.58
64717;BME280;51146;50.274;19.000;2022-07-29T13:24:29;98465.56;;;36.89;19.12
64717;BME280;51146;50.274;19.000;2022-07-29T13:26:55;98459.22;;;37.31;18.87
64717;BME280;51146;50.274;19.000;2022-07-29T13:29:22;98454.06;;;37.39;18.36
64717;BME280;51146;50.274;19.000;2022-07-29T13:31:53;98451.41;;;37.47;18.12
64717;BME280;51146;50.274;19.000;2022-07-29T13:34:21;98444.66;;;37.48;18.86
64717;BME280;51146;50.274;19.000;2022-07-29T13:36:48;98443.78;;;37.48;18.12
64717;BME280;51146;50.274;19.000;2022-07-29T13:39:15;98441.53;;;37.26;19.07
64717;BME280;51146;50.274;19.000;2022-07-29T13:41:42;98431.91;;;37.03;19.10